Time;durP1;ratioP1;P1;durP2;ratioP2;P2;SDS_P1;SDS_P2;PMS_P1;PMS_P2;Temp;Humidity;BMP_temperature;BMP_pressure;BME280_temperature;BME280_humidity;BME280_pressure;Samples;Min_cycle;Max_cycle;Signal;HPM_P1;HPM_P2
2022/08/12 00:43:24;;;;;;;2.60;2.00;;;27.20;55.20;;;;;;4994071;28;20117;-83
2022/08/12 00:48:36;;;;;;;2.70;2.22;;;27.20;55.30;;;;;;4993839;28;20037;-83
2022/08/12 00:51:03;;;;;;;4.28;2.38;;;27.20;55.20;;;;;;4993495;28;20616;-82
2022/08/12 00:53:29;;;;;;;4.10;2.50;;;27.20;55.30;;;;;;4993791;28;20054;-83
2022/08/12 00:55:59;;;;;;;3.15;2.33;;;27.20;55.30;;;;;;4992370;28;20026;-83
2022/08/12 00:58:27;;;;;;;5.68;2.70;;;27.20;55.50;;;;;;4993450;28;20088;-83
2022/08/12 01:00:59;;;;;;;3.53;2.63;;;27.20;55.40;;;;;;4993358;28;20506;-83
2022/08/12 01:03:25;;;;;;;;;;;27.20;55.40;;;;;;4994023;28;20026;-83
2022/08/12 01:11:30;;;;;;;7.60;2.83;;;27.20;55.20;;;;;;4993182;28;20041;-83
2022/08/12 01:13:58;;;;;;;10.75;2.88;;;27.20;55.10;;;;;;4993529;28;20077;-83
2022/08/12 01:16:24;;;;;;;5.47;2.47;;;27.20;55.10;;;;;;4993211;28;20384;-83
2022/08/12 01:18:55;;;;;;;9.32;2.72;;;27.20;55.10;;;;;;4993460;28;20055;-83
2022/08/12 01:21:26;;;;;;;4.13;2.65;;;27.20;55.10;;;;;;4993268;28;20046;-82
2022/08/12 01:24:16;;;;;;;6.13;2.55;;;27.20;55.20;;;;;;4993270;28;20093;-82
2022/08/12 01:26:46;;;;;;;5.68;2.53;;;27.20;55.10;;;;;;4992976;28;20019;-82
2022/08/12 01:29:15;;;;;;;3.72;2.33;;;27.20;54.90;;;;;;4993467;28;20026;-83
2022/08/12 01:31:44;;;;;;;4.10;2.80;;;27.20;54.80;;;;;;4993066;28;20031;-83
2022/08/12 01:34:18;;;;;;;6.55;2.80;;;27.20;54.80;;;;;;4993909;28;20046;-83
2022/08/12 01:36:54;;;;;;;4.85;2.67;;;27.20;54.80;;;;;;4993258;28;20057;-83
2022/08/12 01:39:24;;;;;;;4.68;2.70;;;27.20;54.80;;;;;;4993383;28;20080;-83
2022/08/12 01:41:53;;;;;;;6.32;2.67;;;27.20;54.50;;;;;;4992719;28;20019;-84
2022/08/12 01:44:21;;;;;;;3.28;2.45;;;27.20;54.50;;;;;;4993429;28;20530;-83
2022/08/12 01:47:09;;;;;;;3.50;2.42;;;27.20;54.50;;;;;;4994808;28;20022;-83
2022/08/12 01:49:44;;;;;;;3.90;2.90;;;27.20;54.70;;;;;;4996678;28;20026;-83
2022/08/12 01:52:34;;;;;;;3.55;2.42;;;27.20;54.40;;;;;;4979247;28;20479;-83
2022/08/12 01:55:00;;;;;;;2.95;2.42;;;27.20;54.50;;;;;;4996266;28;20423;-83
2022/08/12 01:57:40;;;;;;;6.63;2.70;;;27.20;54.30;;;;;;4996386;28;20046;-83
2022/08/12 02:00:11;;;;;;;3.05;2.75;;;27.20;54.50;;;;;;4996465;28;20057;-83
2022/08/12 02:03:08;;;;;;;3.28;2.78;;;27.20;54.30;;;;;;4996437;28;20101;-83
2022/08/12 02:11:42;;;;;;;3.92;3.05;;;27.10;54.40;;;;;;4996040;28;20494;-82
2022/08/12 02:14:10;;;;;;;4.20;3.03;;;27.10;54.30;;;;;;4996309;28;20022;-84
2022/08/12 02:16:48;;;;;;;4.55;2.90;;;27.10;54.40;;;;;;4978751;28;20101;-83
2022/08/12 02:19:53;;;;;;;4.97;2.95;;;27.00;54.50;;;;;;4996296;28;20042;-83
2022/08/12 02:22:30;;;;;;;5.05;3.08;;;27.00;54.30;;;;;;4996070;28;20100;-83
2022/08/12 02:25:24;;;;;;;8.05;3.40;;;27.00;54.40;;;;;;4995971;28;20431;-83
2022/08/12 02:27:52;;;;;;;9.50;3.70;;;27.00;54.40;;;;;;4995871;28;20081;-82
2022/08/12 02:30:20;;;;;;;8.23;3.22;;;27.00;54.30;;;;;;4995975;28;20030;-83
2022/08/12 02:32:48;;;;;;;5.43;3.10;;;27.00;54.30;;;;;;4995788;28;20356;-83
2022/08/12 02:35:25;;;;;;;3.95;2.75;;;27.00;54.30;;;;;;4996024;28;20352;-83
2022/08/12 02:37:54;;;;;;;7.22;3.50;;;26.90;54.30;;;;;;4995585;28;20068;-82
2022/08/12 02:40:21;;;;;;;4.97;3.40;;;27.00;54.20;;;;;;4978115;28;20035;-83
2022/08/12 02:42:54;;;;;;;7.32;3.03;;;26.90;54.20;;;;;;4995736;28;20511;-83
2022/08/12 02:45:37;;;;;;;5.35;3.20;;;26.90;54.30;;;;;;4995881;28;20022;-83
2022/08/12 02:48:09;;;;;;;3.90;3.22;;;26.90;54.20;;;;;;4995400;28;20384;-83
2022/08/12 02:50:43;;;;;;;3.88;3.17;;;26.90;54.30;;;;;;4996237;28;20110;-83
2022/08/12 02:53:10;;;;;;;5.35;2.90;;;26.90;54.20;;;;;;4995378;28;20034;-83
2022/08/12 02:55:36;;;;;;;5.18;2.75;;;26.90;54.20;;;;;;4995509;28;20019;-83
2022/08/12 02:58:06;;;;;;;6.55;2.95;;;26.80;54.10;;;;;;4995654;28;20383;-83
2022/08/12 03:00:33;;;;;;;7.00;3.15;;;26.80;54.10;;;;;;4995170;28;20042;-83
2022/08/12 03:03:03;;;;;;;4.32;3.35;;;26.80;54.20;;;;;;4995238;28;20076;-82
2022/08/12 03:05:32;;;;;;;4.68;3.10;;;26.80;54.20;;;;;;4995423;28;20022;-83
2022/08/12 03:08:03;;;;;;;8.20;3.22;;;26.80;54.30;;;;;;4994939;28;20061;-83
2022/08/12 03:10:31;;;;;;;4.53;2.97;;;26.80;54.20;;;;;;4995385;28;20349;-83
2022/08/12 03:12:58;;;;;;;4.85;2.83;;;26.80;54.20;;;;;;4995049;28;20027;-83
2022/08/12 03:15:24;;;;;;;4.40;3.08;;;26.70;54.20;;;;;;4995268;28;20602;-82
2022/08/12 03:18:06;;;;;;;4.18;2.95;;;26.70;54.10;;;;;;4977641;28;20383;-82
2022/08/12 03:20:36;;;;;;;5.88;3.55;;;26.70;54.30;;;;;;4995050;28;20036;-83
2022/08/12 03:23:04;;;;;;;4.95;2.90;;;26.70;54.20;;;;;;4994879;28;20384;-83
2022/08/12 03:25:36;;;;;;;4.72;3.15;;;26.70;54.10;;;;;;4995093;28;20029;-83
2022/08/12 03:28:03;;;;;;;3.50;3.07;;;26.70;54.10;;;;;;4994938;28;20157;-83
2022/08/12 03:30:31;;;;;;;4.05;2.85;;;26.70;54.20;;;;;;4994590;28;20281;-82
2022/08/12 03:33:01;;;;;;;5.40;2.80;;;26.60;54.10;;;;;;4994733;28;20129;-83
2022/08/12 03:35:31;;;;;;;7.72;3.15;;;26.60;54.20;;;;;;4994855;28;20027;-83
2022/08/12 03:37:59;;;;;;;4.57;2.92;;;26.60;54.20;;;;;;5001195;28;20084;-83
2022/08/12 04:00:23;;;;;;;4.35;2.60;;;26.50;54.30;;;;;;5013606;28;20139;-83
2022/08/12 04:02:54;;;;;;;5.07;2.70;;;26.50;54.40;;;;;;5013985;28;20026;-83
2022/08/12 04:05:21;;;;;;;3.13;2.70;;;26.40;54.40;;;;;;5013558;28;20022;-82
2022/08/12 04:07:47;;;;;;;4.53;2.50;;;26.40;54.50;;;;;;5013994;28;20026;-83
2022/08/12 04:10:13;;;;;;;4.25;3.05;;;26.40;54.60;;;;;;5013234;28;20030;-83
2022/08/12 04:15:27;;;;;;;4.88;3.35;;;26.30;54.60;;;;;;5014010;28;20037;-83
2022/08/12 04:17:53;;;;;;;5.85;3.15;;;26.30;54.60;;;;;;5013742;28;20116;-83
2022/08/12 04:20:20;;;;;;;4.05;2.80;;;26.30;54.60;;;;;;5013261;28;20038;-83
2022/08/12 04:22:46;;;;;;;4.78;3.10;;;26.20;54.60;;;;;;5013599;28;20033;-82
2022/08/12 04:25:12;;;;;;;4.15;3.22;;;26.20;54.70;;;;;;5013529;28;20026;-83
2022/08/12 04:27:42;;;;;;;5.05;3.60;;;26.20;54.80;;;;;;5013414;28;20045;-82
2022/08/12 04:30:10;;;;;;;5.47;3.08;;;26.20;55.50;;;;;;5013462;28;20034;-82
2022/08/12 04:32:36;;;;;;;5.53;3.25;;;26.20;54.90;;;;;;5013621;28;20029;-82
2022/08/12 04:35:02;;;;;;;9.05;4.20;;;26.20;55.00;;;;;;5012985;28;20426;-83
2022/08/12 04:37:28;;;;;;;4.97;4.18;;;26.20;55.00;;;;;;5013478;28;20026;-82
2022/08/12 04:39:55;;;;;;;9.98;3.75;;;26.10;55.00;;;;;;5013140;28;20037;-83
2022/08/12 04:42:22;;;;;;;4.85;3.60;;;26.10;55.10;;;;;;5013456;28;20029;-83
2022/08/12 04:44:48;;;;;;;4.97;3.30;;;26.10;55.10;;;;;;5013524;28;20024;-82
2022/08/12 04:47:15;;;;;;;7.50;3.75;;;26.10;55.20;;;;;;5013379;28;20104;-83
2022/08/12 04:49:44;;;;;;;6.78;3.75;;;26.00;55.10;;;;;;5012963;28;20529;-82
2022/08/12 04:52:10;;;;;;;6.55;4.40;;;26.00;55.20;;;;;;5013326;28;20442;-82
2022/08/12 04:54:36;;;;;;;6.38;3.83;;;26.00;55.10;;;;;;5013154;28;20034;-82
2022/08/12 04:57:02;;;;;;;5.45;3.78;;;26.00;55.30;;;;;;5013520;28;20022;-83
2022/08/12 04:59:29;;;;;;;6.78;4.03;;;26.00;55.30;;;;;;5013255;28;20045;-83
2022/08/12 05:01:56;;;;;;;8.63;4.50;;;26.00;55.40;;;;;;4999412;28;20052;-82
2022/08/12 05:04:26;;;;;;;7.85;4.30;;;26.00;55.40;;;;;;4993131;28;20157;-83
2022/08/12 05:06:52;;;;;;;8.68;4.05;;;26.00;55.50;;;;;;4990738;28;20022;-83
2022/08/12 05:09:18;;;;;;;12.88;5.05;;;25.90;55.40;;;;;;4993089;28;20111;-83
2022/08/12 05:11:48;;;;;;;7.35;4.32;;;25.90;55.50;;;;;;4992850;28;20490;-83
2022/08/12 05:14:15;;;;;;;7.05;4.13;;;25.90;55.60;;;;;;4993675;28;20027;-83
2022/08/12 05:16:41;;;;;;;12.30;5.30;;;25.90;55.60;;;;;;4993340;28;20479;-83
2022/08/12 05:19:06;;;;;;;9.43;4.72;;;25.90;55.60;;;;;;4992944;28;20037;-83
2022/08/12 05:21:32;;;;;;;8.95;4.75;;;25.90;55.70;;;;;;4995122;28;20022;-83
2022/08/12 05:23:59;;;;;;;7.57;4.57;;;25.80;55.70;;;;;;4997491;28;20019;-83
2022/08/12 05:26:25;;;;;;;7.47;4.68;;;25.80;55.70;;;;;;4997137;28;20019;-83
2022/08/12 05:28:52;;;;;;;9.10;4.80;;;25.80;55.70;;;;;;4997296;28;20069;-82
2022/08/12 05:31:19;;;;;;;5.88;4.40;;;25.80;55.80;;;;;;4995881;28;20415;-83
2022/08/12 05:33:46;;;;;;;7.68;4.82;;;25.80;55.90;;;;;;4996820;28;20475;-83
2022/08/12 05:36:14;;;;;;;11.15;4.95;;;25.70;55.80;;;;;;4997036;28;20101;-82
2022/08/12 05:38:57;;;;;;;11.40;4.90;;;25.70;56.10;;;;;;4996955;28;20029;-82
2022/08/12 05:41:27;;;;;;;7.65;4.97;;;25.80;56.10;;;;;;4996823;28;20041;-83
2022/08/12 05:44:02;;;;;;;10.65;5.25;;;25.70;56.00;;;;;;4979602;28;20058;-83
2022/08/12 05:46:29;;;;;;;9.98;4.88;;;25.70;56.10;;;;;;4997011;28;20105;-83
2022/08/12 05:48:55;;;;;;;7.40;4.78;;;25.70;56.00;;;;;;4996533;28;20022;-83
2022/08/12 05:51:26;;;;;;;11.05;4.55;;;25.70;56.10;;;;;;4996685;28;20033;-82
2022/08/12 05:53:53;;;;;;;9.63;4.82;;;25.70;56.20;;;;;;4996784;28;20050;-83
2022/08/12 05:56:29;;;;;;;14.27;6.20;;;25.70;56.20;;;;;;4996408;28;20084;-83
2022/08/12 05:58:57;;;;;;;10.32;5.57;;;25.70;56.40;;;;;;4996543;28;20034;-83
2022/08/12 06:01:25;;;;;;;13.90;5.50;;;25.70;56.30;;;;;;4996083;28;20038;-83
2022/08/12 06:03:51;;;;;;;14.43;6.05;;;25.70;56.50;;;;;;4996509;28;20033;-82
2022/08/12 06:06:18;;;;;;;11.45;5.95;;;25.70;56.50;;;;;;4996408;28;20022;-82
2022/08/12 06:08:47;;;;;;;7.50;5.28;;;25.70;56.40;;;;;;4996458;28;20019;-82
2022/08/12 06:11:17;;;;;;;10.88;6.07;;;25.70;56.50;;;;;;4996119;28;20092;-82
2022/08/12 06:13:44;;;;;;;10.90;5.88;;;25.70;56.60;;;;;;4996382;28;20025;-83
2022/08/12 06:16:13;;;;;;;8.10;5.88;;;25.70;56.70;;;;;;4996045;28;20030;-83
2022/08/12 06:18:40;;;;;;;10.02;5.93;;;25.70;56.80;;;;;;4996099;28;20056;-82
2022/08/12 06:21:14;;;;;;;11.70;5.57;;;25.70;56.80;;;;;;4996147;28;20041;-83
2022/08/12 06:23:41;;;;;;;6.75;5.18;;;25.70;56.90;;;;;;4996019;28;20046;-82
2022/08/12 06:26:10;;;;;;;7.15;5.07;;;25.80;57.00;;;;;;4996022;28;20372;-82
2022/08/12 06:28:36;;;;;;;12.43;6.05;;;25.80;57.00;;;;;;4995883;28;20026;-82
2022/08/12 06:31:03;;;;;;;9.38;6.20;;;25.70;57.00;;;;;;4995535;28;20026;-82
2022/08/12 06:33:29;;;;;;;8.85;5.05;;;25.80;57.10;;;;;;4995634;28;20022;-83
2022/08/12 06:35:56;;;;;;;10.30;5.97;;;25.80;57.20;;;;;;4995949;28;20022;-82
2022/08/12 06:38:24;;;;;;;11.90;6.25;;;25.80;57.10;;;;;;4995749;28;20109;-82
2022/08/12 06:43:45;;;;;;;8.65;5.63;;;25.80;57.50;;;;;;4995833;28;20038;-82
2022/08/12 06:46:12;;;;;;;9.40;5.68;;;25.90;57.40;;;;;;4995430;28;20049;-83
2022/08/12 06:48:41;;;;;;;10.13;6.25;;;25.90;57.30;;;;;;4995476;28;20033;-82
2022/08/12 06:51:07;;;;;;;8.85;5.93;;;25.80;57.50;;;;;;4995517;28;20030;-83
2022/08/12 06:53:33;;;;;;;9.95;5.93;;;25.80;57.50;;;;;;4995641;28;20022;-82
2022/08/12 06:55:59;;;;;;;9.38;5.15;;;25.80;57.50;;;;;;4995515;28;20387;-83
2022/08/12 06:58:27;;;;;;;8.60;5.40;;;25.80;57.60;;;;;;4995296;28;20054;-83
2022/08/12 07:00:54;;;;;;;7.45;5.97;;;25.90;57.70;;;;;;4994958;28;20053;-83
2022/08/12 07:03:26;;;;;;;8.07;5.78;;;25.90;57.60;;;;;;4995170;28;20022;-83
2022/08/12 07:05:53;;;;;;;6.05;4.78;;;25.90;57.60;;;;;;4995281;28;20467;-83
2022/08/12 07:08:19;;;;;;;6.28;4.22;;;25.90;57.70;;;;;;4977795;28;20479;-82
2022/08/12 07:10:52;;;;;;;8.30;5.85;;;26.00;57.90;;;;;;4995139;28;20033;-82
2022/08/12 07:13:19;;;;;;;5.88;4.85;;;25.90;57.90;;;;;;4995040;28;20022;-82
2022/08/12 07:15:45;;;;;;;7.63;4.75;;;26.00;57.80;;;;;;4993593;28;20036;-82
2022/08/12 07:18:18;;;;;;;9.75;4.97;;;26.00;57.70;;;;;;4995036;28;20101;-83
2022/08/12 07:20:46;;;;;;;8.57;4.28;;;26.00;57.80;;;;;;4995286;28;20041;-83
2022/08/12 07:23:13;;;;;;;7.10;3.90;;;26.00;57.90;;;;;;4994862;28;20018;-83
2022/08/12 07:25:41;;;;;;;5.03;2.65;;;26.00;58.10;;;;;;4994981;28;20019;-82
2022/08/12 07:28:16;;;;;;;5.25;3.35;;;26.00;58.10;;;;;;4994883;28;20015;-83
2022/08/12 07:30:43;;;;;;;4.82;2.97;;;26.00;58.30;;;;;;4994718;28;20033;-83
2022/08/12 07:33:10;;;;;;;6.82;3.20;;;26.10;58.40;;;;;;4994572;28;20023;-83
2022/08/12 07:35:46;;;;;;;6.78;3.50;;;26.10;58.50;;;;;;4977176;28;20420;-83
2022/08/12 07:38:33;;;;;;;2.88;2.50;;;26.20;58.60;;;;;;4994653;28;20094;-82
2022/08/12 07:41:18;;;;;;;4.13;3.10;;;26.10;58.50;;;;;;4994728;28;20117;-83
2022/08/12 07:43:49;;;;;;;4.72;3.15;;;26.20;58.70;;;;;;4993452;28;20526;-83
2022/08/12 07:46:19;;;;;;;5.00;2.93;;;26.20;58.60;;;;;;4994925;28;20364;-83
2022/08/12 07:48:47;;;;;;;3.60;2.90;;;26.20;58.70;;;;;;4994580;28;20739;-83
2022/08/12 07:51:14;;;;;;;7.00;2.97;;;26.20;58.60;;;;;;4994328;28;20023;-83
2022/08/12 07:53:40;;;;;;;3.78;2.53;;;26.20;58.60;;;;;;4994468;28;20066;-83
2022/08/12 07:56:10;;;;;;;4.63;2.70;;;26.30;58.70;;;;;;4994412;28;20053;-83
2022/08/12 07:58:38;;;;;;;3.83;2.75;;;26.30;58.70;;;;;;4994075;28;20121;-83
2022/08/12 08:01:11;;;;;;;3.63;2.25;;;26.30;58.70;;;;;;4976971;28;20125;-82
2022/08/12 08:04:54;;;;;;;3.75;2.60;;;26.30;58.80;;;;;;4994041;28;20023;-83
2022/08/12 08:06:23;;;;;;;3.15;2.40;;;26.30;58.60;;;;;;4994140;28;20061;-83
2022/08/12 08:08:49;;;;;;;3.80;2.88;;;26.30;58.70;;;;;;4994055;28;20471;-83
2022/08/12 08:14:03;;;;;;;3.88;2.30;;;26.40;58.70;;;;;;4994070;28;20089;-83
2022/08/12 08:16:28;;;;;;;4.43;2.67;;;26.40;58.80;;;;;;4993932;28;20065;-83
2022/08/12 08:18:58;;;;;;;3.08;2.47;;;26.40;58.80;;;;;;4993839;28;20035;-83
2022/08/12 08:21:26;;;;;;;4.15;2.10;;;26.40;58.70;;;;;;4994266;28;20471;-83
2022/08/12 08:26:36;;;;;;;4.18;2.35;;;26.50;58.90;;;;;;4994070;28;20076;-83
2022/08/12 08:29:02;;;;;;;2.92;2.28;;;26.50;58.80;;;;;;4993950;28;20084;-83
2022/08/12 08:31:27;;;;;;;3.95;2.00;;;26.50;58.80;;;;;;4993927;28;20478;-83
2022/08/12 08:33:53;;;;;;;4.90;2.53;;;26.50;58.80;;;;;;4994024;28;20049;-83
2022/08/12 08:36:20;;;;;;;3.63;2.38;;;26.50;58.80;;;;;;4993850;28;20062;-83
2022/08/12 08:38:46;;;;;;;2.90;2.33;;;26.60;58.90;;;;;;4993700;28;20022;-83
2022/08/12 08:43:59;;;;;;;3.67;2.28;;;26.60;58.90;;;;;;4993996;28;20034;-83
2022/08/12 08:46:26;;;;;;;2.35;2.00;;;26.60;58.80;;;;;;4993528;28;20019;-83
2022/08/12 08:48:52;;;;;;;2.75;2.10;;;26.60;58.90;;;;;;4993837;28;20026;-83
2022/08/12 08:51:18;;;;;;;5.43;2.38;;;26.70;59.00;;;;;;4993581;28;20027;-83
2022/08/12 08:53:43;;;;;;;4.72;2.00;;;26.70;59.00;;;;;;4993571;28;20029;-82
2022/08/12 08:56:09;;;;;;;3.78;2.30;;;26.70;58.90;;;;;;4996105;28;20073;-83
2022/08/12 08:58:38;;;;;;;3.88;2.17;;;26.80;58.90;;;;;;4997613;28;20027;-83
2022/08/12 09:01:05;;;;;;;2.50;2.17;;;26.80;58.80;;;;;;4997249;28;20053;-83
2022/08/12 09:03:32;;;;;;;3.63;2.10;;;26.80;59.40;;;;;;4980046;28;20031;-83
2022/08/12 09:06:00;;;;;;;3.05;2.25;;;26.80;58.70;;;;;;4997412;28;20030;-83
2022/08/12 09:08:26;;;;;;;2.85;2.15;;;26.80;58.70;;;;;;4996277;28;20419;-83
2022/08/12 09:10:52;;;;;;;3.58;2.03;;;26.80;58.60;;;;;;4997255;28;20022;-83
2022/08/12 09:13:27;;;;;;;3.08;2.50;;;26.90;58.70;;;;;;4997553;28;20027;-83
2022/08/12 09:15:53;;;;;;;3.25;2.10;;;26.80;58.50;;;;;;4997045;28;20444;-83
2022/08/12 09:18:19;;;;;;;2.72;2.20;;;26.80;58.50;;;;;;4997367;28;20463;-83
2022/08/12 09:20:49;;;;;;;2.35;1.98;;;26.80;58.50;;;;;;4997273;28;20035;-83
2022/08/12 09:23:16;;;;;;;2.75;1.90;;;26.90;58.50;;;;;;4997506;28;20065;-84
2022/08/12 09:25:43;;;;;;;3.55;2.30;;;26.90;58.50;;;;;;4996865;28;20034;-83
2022/08/12 09:28:10;;;;;;;2.38;2.10;;;26.90;58.50;;;;;;4997158;28;20494;-83
2022/08/12 09:30:45;;;;;;;1.90;1.80;;;26.90;58.50;;;;;;4997104;28;20026;-83
2022/08/12 09:33:11;;;;;;;3.28;2.28;;;26.90;58.50;;;;;;4997110;28;20026;-83
2022/08/12 09:35:40;;;;;;;2.75;2.33;;;26.90;58.40;;;;;;4997135;28;20022;-83
2022/08/12 09:38:06;;;;;;;3.38;2.30;;;26.90;58.40;;;;;;4997121;28;20057;-83
2022/08/12 09:40:32;;;;;;;3.70;2.33;;;26.90;58.40;;;;;;4996698;28;20382;-83
2022/08/12 09:45:48;;;;;;;2.90;1.98;;;26.90;58.40;;;;;;4996830;28;20066;-83
2022/08/12 09:48:18;;;;;;;2.83;2.20;;;26.90;58.40;;;;;;4996900;28;20019;-83
2022/08/12 09:50:49;;;;;;;2.90;2.15;;;27.00;58.30;;;;;;4996730;28;20024;-83
2022/08/12 09:53:16;;;;;;;3.30;2.08;;;27.10;58.30;;;;;;4996611;28;20050;-83
2022/08/12 09:55:47;;;;;;;3.00;2.13;;;27.00;58.40;;;;;;4996537;28;20030;-83
2022/08/12 09:58:15;;;;;;;2.50;1.90;;;27.00;58.30;;;;;;4996581;28;20101;-83
2022/08/12 10:00:46;;;;;;;3.08;2.03;;;27.00;58.30;;;;;;4996442;28;20043;-83
2022/08/12 10:03:13;;;;;;;1.95;1.73;;;26.90;58.30;;;;;;4996654;28;20014;-83
2022/08/12 10:05:45;;;;;;;2.53;2.10;;;27.00;58.30;;;;;;4996377;28;20023;-83
2022/08/12 10:08:15;;;;;;;2.10;1.90;;;27.00;58.20;;;;;;4995402;28;20023;-83
2022/08/12 10:13:40;;;;;;;4.03;2.38;;;27.10;58.20;;;;;;4996446;28;20125;-82
2022/08/12 10:16:16;;;;;;;3.60;1.85;;;27.00;58.20;;;;;;4996267;28;20030;-83
2022/08/12 10:18:58;;;;;;;2.15;1.90;;;27.00;58.20;;;;;;4995946;28;20019;-83
2022/08/12 10:21:29;;;;;;;3.05;1.92;;;27.00;58.20;;;;;;4996294;28;20105;-83
2022/08/12 10:23:56;;;;;;;3.85;1.80;;;27.00;58.10;;;;;;4995934;28;20140;-83
2022/08/12 10:31:54;;;;;;;2.38;2.15;;;27.10;58.10;;;;;;4996041;28;20395;-83
2022/08/12 10:34:21;;;;;;;3.03;2.10;;;27.10;58.10;;;;;;4996084;28;20026;-83
2022/08/12 10:36:48;;;;;;;1.92;1.70;;;27.10;58.10;;;;;;4995773;28;20384;-83
2022/08/12 10:39:16;;;;;;;3.15;2.20;;;27.10;58.00;;;;;;4995839;28;20035;-83
2022/08/12 10:44:28;;;;;;;3.00;1.83;;;27.10;58.00;;;;;;4996113;28;20033;-83
2022/08/12 10:46:54;;;;;;;9.25;2.00;;;27.00;57.90;;;;;;4995773;28;20018;-83
2022/08/12 10:49:30;;;;;;;6.43;2.05;;;27.30;51.40;;;;;;4995365;28;20369;-83
2022/08/12 10:51:56;;;;;;;4.97;2.33;;;27.60;50.80;;;;;;4995581;28;20202;-83
2022/08/12 10:54:26;;;;;;;4.07;2.10;;;27.80;50.00;;;;;;4995587;28;20109;-83
2022/08/12 10:56:59;;;;;;;5.82;2.08;;;27.90;51.80;;;;;;4995576;28;20038;-82
2022/08/12 10:59:27;;;;;;;7.97;2.10;;;27.90;50.80;;;;;;4995343;28;20041;-83
2022/08/12 11:01:55;;;;;;;4.82;2.35;;;28.00;48.30;;;;;;4995349;28;20034;-83
2022/08/12 11:04:21;;;;;;;6.70;2.00;;;28.20;48.60;;;;;;4995378;28;20018;-83
2022/08/12 11:06:46;;;;;;;5.22;1.80;;;28.30;47.30;;;;;;4994928;28;20029;-83
2022/08/12 11:09:23;;;;;;;3.80;2.03;;;28.30;50.00;;;;;;4995160;28;20022;-83
2022/08/12 11:11:48;;;;;;;8.57;2.10;;;28.30;49.80;;;;;;4995479;28;20114;-83
2022/08/12 11:14:16;;;;;;;4.68;2.15;;;28.10;49.30;;;;;;4995071;28;20492;-83
2022/08/12 11:16:43;;;;;;;5.97;2.40;;;28.40;47.90;;;;;;4995097;28;20018;-83
2022/08/12 11:19:10;;;;;;;4.47;1.77;;;28.50;47.70;;;;;;4993852;28;20037;-82
2022/08/12 11:21:37;;;;;;;5.03;2.08;;;28.40;49.10;;;;;;4994710;28;20054;-82
2022/08/12 11:24:03;;;;;;;3.90;2.00;;;28.50;48.10;;;;;;4995009;28;20025;-82
2022/08/12 11:26:29;;;;;;;3.92;1.80;;;28.50;48.60;;;;;;4994999;28;20456;-83
2022/08/12 11:28:54;;;;;;;3.47;1.90;;;28.60;47.30;;;;;;4994889;28;20081;-83
2022/08/12 11:31:20;;;;;;;5.32;2.13;;;28.50;50.10;;;;;;4994845;28;20092;-82
2022/08/12 11:33:48;;;;;;;3.88;1.95;;;28.40;50.50;;;;;;4994772;28;20034;-82
2022/08/12 11:36:14;;;;;;;7.72;2.20;;;28.50;47.10;;;;;;4994580;28;20058;-83
2022/08/12 11:38:39;;;;;;;4.65;2.30;;;28.60;46.50;;;;;;4994600;28;20033;-82
2022/08/12 11:41:05;;;;;;;4.55;2.20;;;28.80;47.20;;;;;;4995239;28;20030;-82
2022/08/12 11:43:31;;;;;;;5.88;1.92;;;28.70;46.40;;;;;;4994550;28;20022;-82
2022/08/12 11:45:58;;;;;;;9.60;2.58;;;28.60;48.90;;;;;;4994695;28;20031;-83
2022/08/12 11:48:24;;;;;;;9.52;2.53;;;28.70;46.90;;;;;;4994692;28;20018;-83
2022/08/12 11:50:50;;;;;;;4.80;2.65;;;28.80;46.20;;;;;;4994326;28;20026;-82
2022/08/12 11:53:15;;;;;;;5.18;1.85;;;28.90;46.30;;;;;;4994530;28;20403;-82
2022/08/12 11:55:41;;;;;;;5.38;1.90;;;28.80;49.10;;;;;;4994266;28;20026;-83
2022/08/12 11:58:07;;;;;;;2.88;1.98;;;28.60;48.70;;;;;;4994493;28;20112;-83
2022/08/12 12:00:32;;;;;;;6.55;2.30;;;28.50;50.20;;;;;;4994173;28;20499;-83
2022/08/12 12:02:58;;;;;;;2.42;1.67;;;28.50;48.40;;;;;;4994418;28;20023;-82
2022/08/12 12:05:24;;;;;;;13.13;2.35;;;28.60;49.90;;;;;;4993903;28;20030;-83
2022/08/12 12:07:49;;;;;;;4.28;2.42;;;28.80;47.20;;;;;;4994192;28;20022;-82
2022/08/12 12:10:18;;;;;;;4.05;1.90;;;28.80;46.40;;;;;;4994310;28;20026;-83
2022/08/12 12:12:44;;;;;;;6.85;2.50;;;28.80;47.40;;;;;;4994293;28;20022;-83
2022/08/12 12:15:11;;;;;;;1.50;1.40;;;28.80;47.90;;;;;;4994044;28;20037;-82
2022/08/12 12:17:38;;;;;;;2.00;1.40;;;28.70;50.40;;;;;;4992829;28;20053;-83
2022/08/12 12:20:09;;;;;;;5.70;2.15;;;28.50;50.80;;;;;;4993603;28;20034;-82
2022/08/12 12:22:40;;;;;;;6.67;1.90;;;28.60;46.70;;;;;;4994105;28;20152;-83
2022/08/12 12:25:06;;;;;;;6.32;2.00;;;28.90;45.50;;;;;;4993801;28;20319;-82
2022/08/12 12:27:50;;;;;;;1.90;1.60;;;29.00;45.00;;;;;;4994009;28;20023;-82
2022/08/12 12:30:15;;;;;;;4.65;2.20;;;28.60;51.20;;;;;;4993647;28;20488;-82
2022/08/12 12:32:42;;;;;;;7.85;2.33;;;28.30;50.40;;;;;;4993915;28;20105;-83
2022/08/12 12:35:07;;;;;;;3.55;2.17;;;28.90;46.40;;;;;;4993397;28;20077;-83
2022/08/12 12:37:33;;;;;;;1.73;1.58;;;29.00;46.80;;;;;;4993777;28;20395;-83
2022/08/12 12:39:59;;;;;;;5.25;2.30;;;28.80;49.60;;;;;;4993705;28;20043;-83
2022/08/12 12:42:26;;;;;;;5.03;2.20;;;28.90;46.60;;;;;;4993800;28;20043;-83
2022/08/12 12:44:51;;;;;;;7.90;2.28;;;29.00;45.50;;;;;;4993594;28;20085;-82
2022/08/12 12:47:17;;;;;;;8.00;2.63;;;29.00;48.10;;;;;;4993444;28;20149;-83
2022/08/12 12:49:43;;;;;;;3.30;1.98;;;29.10;46.30;;;;;;4993635;28;20034;-83
2022/08/12 12:52:08;;;;;;;5.30;2.65;;;29.00;47.10;;;;;;4992422;28;20023;-82
2022/08/12 12:54:34;;;;;;;7.28;2.30;;;29.10;46.20;;;;;;4993638;28;20022;-83
2022/08/12 12:56:59;;;;;;;6.15;1.75;;;29.30;44.80;;;;;;4993275;28;20022;-82
2022/08/12 12:59:27;;;;;;;10.60;2.38;;;29.30;45.60;;;;;;4993499;28;20030;-83
2022/08/12 13:01:53;;;;;;;4.55;2.40;;;29.10;45.90;;;;;;4993058;28;20053;-82
2022/08/12 13:04:19;;;;;;;6.07;2.60;;;29.30;44.90;;;;;;4993684;28;20037;-83
2022/08/12 13:06:51;;;;;;;5.97;2.13;;;29.30;46.50;;;;;;4993501;28;20023;-83
2022/08/12 13:09:18;;;;;;;3.72;2.25;;;29.10;46.80;;;;;;4993534;28;20088;-82
2022/08/12 13:11:43;;;;;;;6.78;2.15;;;29.30;46.40;;;;;;4993282;28;20030;-83
2022/08/12 13:14:14;;;;;;;3.17;1.80;;;29.00;48.40;;;;;;4993609;28;20030;-83
2022/08/12 13:16:42;;;;;;;6.93;2.25;;;28.90;48.60;;;;;;4993060;28;20076;-83
2022/08/12 13:19:08;;;;;;;3.75;2.25;;;29.10;45.80;;;;;;4993546;28;20102;-83
2022/08/12 13:21:34;;;;;;;5.63;2.05;;;29.40;44.60;;;;;;4976089;28;20026;-83
2022/08/12 13:24:02;;;;;;;3.55;2.33;;;29.50;44.80;;;;;;4993364;28;20026;-82
2022/08/12 13:26:33;;;;;;;1.85;1.63;;;29.30;46.30;;;;;;4993219;28;20027;-83
2022/08/12 13:28:59;;;;;;;2.90;1.93;;;29.00;49.10;;;;;;4993613;28;20027;-82
2022/08/12 13:31:25;;;;;;;4.32;1.77;;;29.00;48.40;;;;;;4993101;28;20031;-83
2022/08/12 13:33:52;;;;;;;6.53;2.13;;;29.10;45.50;;;;;;4993303;28;20030;-82
2022/08/12 13:36:19;;;;;;;4.00;1.88;;;29.20;47.30;;;;;;4993346;28;20030;-82
2022/08/12 13:38:49;;;;;;;7.65;2.95;;;29.30;46.70;;;;;;4993321;28;20452;-83
2022/08/12 13:41:34;;;;;;;2.08;1.40;;;29.40;44.10;;;;;;4993117;28;20392;-82
2022/08/12 13:44:03;;;;;;;3.47;1.90;;;29.10;49.10;;;;;;4996927;28;20022;-83
2022/08/12 13:46:28;;;;;;;7.22;1.80;;;29.40;44.10;;;;;;4996521;28;20057;-83
2022/08/12 13:48:55;;;;;;;5.25;1.85;;;29.30;45.10;;;;;;4996905;28;20441;-83
2022/08/12 13:51:21;;;;;;;6.25;1.60;;;29.40;44.90;;;;;;4996726;28;20019;-83
2022/08/12 13:53:47;;;;;;;5.80;1.80;;;29.20;45.10;;;;;;4995469;28;20057;-82
2022/08/12 13:56:13;;;;;;;4.30;1.67;;;29.40;43.10;;;;;;4996401;28;20054;-82
2022/08/12 13:58:47;;;;;;;6.28;1.77;;;29.10;46.80;;;;;;4996714;28;20110;-82
2022/08/12 14:01:19;;;;;;;4.10;1.80;;;29.00;46.30;;;;;;4996194;28;20038;-83
2022/08/12 14:03:45;;;;;;;3.55;1.92;;;29.00;48.10;;;;;;4996742;28;20057;-83
2022/08/12 14:06:13;;;;;;;2.40;1.80;;;29.40;42.30;;;;;;4996525;28;20082;-83
2022/08/12 14:08:39;;;;;;;5.03;1.90;;;29.40;42.90;;;;;;4996497;28;20019;-82
2022/08/12 14:11:05;;;;;;;2.10;1.05;;;29.50;43.00;;;;;;4996532;28;20030;-83
2022/08/12 14:13:36;;;;;;;3.70;1.48;;;29.00;48.80;;;;;;4996496;28;20026;-83
2022/08/12 14:16:02;;;;;;;4.47;1.88;;;29.10;45.00;;;;;;4995959;28;20464;-82
2022/08/12 14:18:30;;;;;;;4.07;1.83;;;29.40;43.40;;;;;;4996047;28;20022;-82
2022/08/12 14:21:00;;;;;;;3.90;1.80;;;29.40;43.10;;;;;;4996552;28;20113;-83
2022/08/12 14:23:28;;;;;;;5.70;1.65;;;29.50;43.50;;;;;;4996391;28;20026;-83
2022/08/12 14:25:58;;;;;;;6.78;2.40;;;29.40;43.10;;;;;;4996247;28;20046;-82
2022/08/12 14:28:24;;;;;;;5.15;2.30;;;29.40;43.10;;;;;;4996230;28;20102;-83
2022/08/12 14:30:52;;;;;;;3.05;1.80;;;29.50;42.60;;;;;;4996045;28;20033;-83
2022/08/12 14:33:27;;;;;;;4.55;1.90;;;29.30;47.50;;;;;;4995973;28;20038;-82
2022/08/12 14:35:53;;;;;;;5.07;1.80;;;29.50;43.20;;;;;;4996708;28;20097;-83
2022/08/12 14:38:21;;;;;;;5.13;2.13;;;29.20;45.10;;;;;;4996103;28;20018;-82